sensor_id;sensor_type;location;lat;lon;timestamp;P1;durP1;ratioP1;P2;durP2;ratioP2
56269;SDS011;42176;43.240;27.880;2023-07-20T00:00:09;6.97;;;4.30;;
56269;SDS011;42176;43.240;27.880;2023-07-20T00:02:12;5.18;;;4.10;;
56269;SDS011;42176;43.240;27.880;2023-07-20T00:04:13;4.93;;;4.33;;
56269;SDS011;42176;43.240;27.880;2023-07-20T00:08:15;4.80;;;3.97;;
56269;SDS011;42176;43.240;27.880;2023-07-20T00:10:17;4.97;;;4.13;;
56269;SDS011;42176;43.240;27.880;2023-07-20T00:12:18;5.57;;;3.85;;
56269;SDS011;42176;43.240;27.880;2023-07-20T00:14:18;7.20;;;4.47;;
56269;SDS011;42176;43.240;27.880;2023-07-20T00:16:19;8.82;;;4.35;;
56269;SDS011;42176;43.240;27.880;2023-07-20T00:18:20;7.67;;;4.30;;
56269;SDS011;42176;43.240;27.880;2023-07-20T00:22:23;7.00;;;4.25;;
56269;SDS011;42176;43.240;27.880;2023-07-20T00:24:24;5.10;;;4.50;;
56269;SDS011;42176;43.240;27.880;2023-07-20T00:26:24;6.67;;;4.10;;
56269;SDS011;42176;43.240;27.880;2023-07-20T00:28:25;8.87;;;4.30;;
56269;SDS011;42176;43.240;27.880;2023-07-20T00:30:25;4.53;;;3.97;;
56269;SDS011;42176;43.240;27.880;2023-07-20T00:32:25;5.63;;;4.33;;
56269;SDS011;42176;43.240;27.880;2023-07-20T00:34:26;6.13;;;4.30;;
56269;SDS011;42176;43.240;27.880;2023-07-20T00:36:26;4.87;;;4.20;;
56269;SDS011;42176;43.240;27.880;2023-07-20T00:38:27;6.70;;;4.40;;
56269;SDS011;42176;43.240;27.880;2023-07-20T00:40:27;6.70;;;4.33;;
56269;SDS011;42176;43.240;27.880;2023-07-20T00:42:27;4.67;;;4.27;;
56269;SDS011;42176;43.240;27.880;2023-07-20T00:44:28;8.00;;;5.17;;
56269;SDS011;42176;43.240;27.880;2023-07-20T00:46:28;4.47;;;4.07;;
56269;SDS011;42176;43.240;27.880;2023-07-20T00:48:29;6.63;;;4.18;;
56269;SDS011;42176;43.240;27.880;2023-07-20T00:50:31;12.05;;;3.92;;
56269;SDS011;42176;43.240;27.880;2023-07-20T00:52:32;4.97;;;4.45;;
56269;SDS011;42176;43.240;27.880;2023-07-20T00:54:33;7.38;;;4.45;;
56269;SDS011;42176;43.240;27.880;2023-07-20T00:56:34;4.78;;;4.32;;
56269;SDS011;42176;43.240;27.880;2023-07-20T00:58:35;4.57;;;4.18;;
56269;SDS011;42176;43.240;27.880;2023-07-20T01:00:36;6.70;;;4.25;;
56269;SDS011;42176;43.240;27.880;2023-07-20T01:02:36;6.20;;;4.50;;
56269;SDS011;42176;43.240;27.880;2023-07-20T01:04:37;6.20;;;4.40;;
56269;SDS011;42176;43.240;27.880;2023-07-20T01:09:08;4.43;;;4.00;;
56269;SDS011;42176;43.240;27.880;2023-07-20T01:13:36;7.03;;;3.90;;
56269;SDS011;42176;43.240;27.880;2023-07-20T01:15:37;4.30;;;3.92;;
56269;SDS011;42176;43.240;27.880;2023-07-20T01:17:38;5.40;;;4.63;;
56269;SDS011;42176;43.240;27.880;2023-07-20T01:19:39;5.32;;;4.35;;
56269;SDS011;42176;43.240;27.880;2023-07-20T01:26:50;7.43;;;4.50;;
56269;SDS011;42176;43.240;27.880;2023-07-20T01:31:59;9.23;;;4.57;;
56269;SDS011;42176;43.240;27.880;2023-07-20T01:34:03;5.05;;;4.55;;
56269;SDS011;42176;43.240;27.880;2023-07-20T01:36:06;5.10;;;4.45;;
56269;SDS011;42176;43.240;27.880;2023-07-20T01:38:07;7.50;;;4.25;;
56269;SDS011;42176;43.240;27.880;2023-07-20T01:42:11;4.95;;;4.32;;
56269;SDS011;42176;43.240;27.880;2023-07-20T01:44:12;6.82;;;4.22;;
56269;SDS011;42176;43.240;27.880;2023-07-20T01:46:13;7.63;;;4.80;;
56269;SDS011;42176;43.240;27.880;2023-07-20T01:48:13;5.60;;;3.73;;
56269;SDS011;42176;43.240;27.880;2023-07-20T01:50:14;6.47;;;4.13;;
56269;SDS011;42176;43.240;27.880;2023-07-20T01:52:14;6.07;;;4.53;;
56269;SDS011;42176;43.240;27.880;2023-07-20T01:54:15;11.93;;;5.07;;
56269;SDS011;42176;43.240;27.880;2023-07-20T01:56:15;6.17;;;4.37;;
56269;SDS011;42176;43.240;27.880;2023-07-20T01:58:16;4.82;;;4.32;;
56269;SDS011;42176;43.240;27.880;2023-07-20T02:02:20;5.45;;;4.40;;
56269;SDS011;42176;43.240;27.880;2023-07-20T02:04:20;7.18;;;5.63;;
56269;SDS011;42176;43.240;27.880;2023-07-20T02:06:21;8.27;;;5.00;;
56269;SDS011;42176;43.240;27.880;2023-07-20T02:08:21;8.47;;;5.43;;
56269;SDS011;42176;43.240;27.880;2023-07-20T02:10:22;7.07;;;4.50;;
56269;SDS011;42176;43.240;27.880;2023-07-20T02:12:22;7.40;;;4.53;;
56269;SDS011;42176;43.240;27.880;2023-07-20T02:14:23;5.80;;;4.23;;
56269;SDS011;42176;43.240;27.880;2023-07-20T02:16:23;5.53;;;4.40;;
56269;SDS011;42176;43.240;27.880;2023-07-20T02:18:23;6.17;;;4.40;;
56269;SDS011;42176;43.240;27.880;2023-07-20T02:20:24;7.30;;;5.40;;
56269;SDS011;42176;43.240;27.880;2023-07-20T02:22:24;6.10;;;4.50;;
56269;SDS011;42176;43.240;27.880;2023-07-20T02:24:25;7.70;;;5.10;;
56269;SDS011;42176;43.240;27.880;2023-07-20T02:26:25;10.03;;;5.30;;
56269;SDS011;42176;43.240;27.880;2023-07-20T02:28:26;5.95;;;5.22;;
56269;SDS011;42176;43.240;27.880;2023-07-20T02:30:27;6.60;;;4.95;;
56269;SDS011;42176;43.240;27.880;2023-07-20T02:32:28;5.47;;;4.95;;
56269;SDS011;42176;43.240;27.880;2023-07-20T02:34:28;5.93;;;5.10;;
56269;SDS011;42176;43.240;27.880;2023-07-20T02:36:29;12.13;;;5.03;;
56269;SDS011;42176;43.240;27.880;2023-07-20T02:38:29;7.77;;;5.87;;
56269;SDS011;42176;43.240;27.880;2023-07-20T02:40:30;11.70;;;5.57;;
56269;SDS011;42176;43.240;27.880;2023-07-20T02:42:30;8.00;;;5.22;;
56269;SDS011;42176;43.240;27.880;2023-07-20T02:44:31;7.00;;;5.57;;
56269;SDS011;42176;43.240;27.880;2023-07-20T02:46:31;9.40;;;4.97;;
56269;SDS011;42176;43.240;27.880;2023-07-20T02:48:31;11.03;;;6.10;;
56269;SDS011;42176;43.240;27.880;2023-07-20T02:50:32;7.33;;;5.67;;
56269;SDS011;42176;43.240;27.880;2023-07-20T02:52:32;7.80;;;5.50;;
56269;SDS011;42176;43.240;27.880;2023-07-20T02:54:33;7.63;;;5.37;;
56269;SDS011;42176;43.240;27.880;2023-07-20T02:56:33;8.37;;;5.13;;
56269;SDS011;42176;43.240;27.880;2023-07-20T02:58:34;9.43;;;5.70;;
56269;SDS011;42176;43.240;27.880;2023-07-20T03:00:38;14.90;;;10.52;;
56269;SDS011;42176;43.240;27.880;2023-07-20T03:02:39;11.23;;;6.97;;
56269;SDS011;42176;43.240;27.880;2023-07-20T03:04:39;7.90;;;6.17;;
56269;SDS011;42176;43.240;27.880;2023-07-20T03:06:40;10.67;;;5.70;;
56269;SDS011;42176;43.240;27.880;2023-07-20T03:08:40;11.40;;;5.90;;
56269;SDS011;42176;43.240;27.880;2023-07-20T03:12:42;8.73;;;5.40;;
56269;SDS011;42176;43.240;27.880;2023-07-20T03:14:42;15.60;;;5.68;;
56269;SDS011;42176;43.240;27.880;2023-07-20T03:16:43;17.90;;;6.30;;
56269;SDS011;42176;43.240;27.880;2023-07-20T03:18:43;9.90;;;6.07;;
56269;SDS011;42176;43.240;27.880;2023-07-20T03:20:44;7.07;;;5.70;;
56269;SDS011;42176;43.240;27.880;2023-07-20T03:22:45;9.95;;;5.85;;
56269;SDS011;42176;43.240;27.880;2023-07-20T03:26:46;12.43;;;5.50;;
56269;SDS011;42176;43.240;27.880;2023-07-20T03:28:47;12.18;;;5.22;;
56269;SDS011;42176;43.240;27.880;2023-07-20T03:30:55;11.77;;;5.93;;
56269;SDS011;42176;43.240;27.880;2023-07-20T03:32:56;13.63;;;8.20;;
56269;SDS011;42176;43.240;27.880;2023-07-20T03:34:56;14.00;;;5.47;;
56269;SDS011;42176;43.240;27.880;2023-07-20T03:36:57;11.77;;;5.60;;
56269;SDS011;42176;43.240;27.880;2023-07-20T03:38:57;10.23;;;5.00;;
56269;SDS011;42176;43.240;27.880;2023-07-20T03:40:58;10.83;;;5.77;;
56269;SDS011;42176;43.240;27.880;2023-07-20T03:43:00;15.60;;;5.18;;
56269;SDS011;42176;43.240;27.880;2023-07-20T03:45:01;11.02;;;4.70;;
56269;SDS011;42176;43.240;27.880;2023-07-20T03:47:03;21.63;;;5.13;;
56269;SDS011;42176;43.240;27.880;2023-07-20T03:49:04;16.58;;;4.40;;
56269;SDS011;42176;43.240;27.880;2023-07-20T03:51:06;12.48;;;4.70;;
56269;SDS011;42176;43.240;27.880;2023-07-20T03:53:06;14.33;;;4.50;;
56269;SDS011;42176;43.240;27.880;2023-07-20T03:55:07;12.00;;;4.97;;
56269;SDS011;42176;43.240;27.880;2023-07-20T03:57:07;24.27;;;4.57;;
56269;SDS011;42176;43.240;27.880;2023-07-20T03:59:09;20.65;;;5.50;;
56269;SDS011;42176;43.240;27.880;2023-07-20T04:01:10;11.70;;;5.45;;
56269;SDS011;42176;43.240;27.880;2023-07-20T04:05:10;13.00;;;4.35;;
56269;SDS011;42176;43.240;27.880;2023-07-20T04:09:11;11.83;;;5.60;;
56269;SDS011;42176;43.240;27.880;2023-07-20T04:13:12;17.73;;;5.37;;
56269;SDS011;42176;43.240;27.880;2023-07-20T04:17:14;23.57;;;4.87;;
56269;SDS011;42176;43.240;27.880;2023-07-20T04:21:14;18.33;;;5.00;;
56269;SDS011;42176;43.240;27.880;2023-07-20T04:25:16;13.33;;;5.30;;
56269;SDS011;42176;43.240;27.880;2023-07-20T04:27:17;10.68;;;5.47;;
56269;SDS011;42176;43.240;27.880;2023-07-20T04:29:18;14.43;;;5.20;;
56269;SDS011;42176;43.240;27.880;2023-07-20T04:31:18;11.90;;;5.90;;
56269;SDS011;42176;43.240;27.880;2023-07-20T04:33:19;26.35;;;6.90;;
56269;SDS011;42176;43.240;27.880;2023-07-20T04:37:52;20.48;;;5.68;;
56269;SDS011;42176;43.240;27.880;2023-07-20T04:39:52;18.80;;;6.18;;
56269;SDS011;42176;43.240;27.880;2023-07-20T04:41:52;13.40;;;6.45;;
56269;SDS011;42176;43.240;27.880;2023-07-20T04:43:53;12.70;;;6.57;;
56269;SDS011;42176;43.240;27.880;2023-07-20T04:45:53;15.55;;;6.85;;
56269;SDS011;42176;43.240;27.880;2023-07-20T04:49:54;15.25;;;6.38;;
56269;SDS011;42176;43.240;27.880;2023-07-20T04:53:55;13.13;;;7.37;;
56269;SDS011;42176;43.240;27.880;2023-07-20T04:55:56;13.77;;;6.38;;
56269;SDS011;42176;43.240;27.880;2023-07-20T04:57:56;16.60;;;6.07;;
56269;SDS011;42176;43.240;27.880;2023-07-20T04:59:57;15.32;;;6.10;;
56269;SDS011;42176;43.240;27.880;2023-07-20T05:01:57;13.82;;;6.05;;
56269;SDS011;42176;43.240;27.880;2023-07-20T05:03:58;14.82;;;6.15;;
56269;SDS011;42176;43.240;27.880;2023-07-20T05:05:58;17.33;;;8.48;;
56269;SDS011;42176;43.240;27.880;2023-07-20T05:07:59;15.00;;;6.18;;
56269;SDS011;42176;43.240;27.880;2023-07-20T05:09:59;15.15;;;5.32;;
56269;SDS011;42176;43.240;27.880;2023-07-20T05:12:00;24.83;;;7.60;;
56269;SDS011;42176;43.240;27.880;2023-07-20T05:14:01;31.90;;;6.15;;
56269;SDS011;42176;43.240;27.880;2023-07-20T05:16:02;25.98;;;6.28;;
56269;SDS011;42176;43.240;27.880;2023-07-20T05:18:03;12.65;;;5.03;;
56269;SDS011;42176;43.240;27.880;2023-07-20T05:20:03;14.30;;;5.47;;
56269;SDS011;42176;43.240;27.880;2023-07-20T05:22:04;13.40;;;5.28;;
56269;SDS011;42176;43.240;27.880;2023-07-20T05:24:05;11.57;;;4.75;;
56269;SDS011;42176;43.240;27.880;2023-07-20T05:26:06;10.65;;;4.68;;
56269;SDS011;42176;43.240;27.880;2023-07-20T05:28:07;9.32;;;4.43;;
56269;SDS011;42176;43.240;27.880;2023-07-20T05:30:07;10.48;;;5.05;;
56269;SDS011;42176;43.240;27.880;2023-07-20T05:32:08;11.63;;;4.63;;
56269;SDS011;42176;43.240;27.880;2023-07-20T05:34:09;7.07;;;3.28;;
56269;SDS011;42176;43.240;27.880;2023-07-20T05:36:25;14.38;;;3.83;;
56269;SDS011;42176;43.240;27.880;2023-07-20T05:38:25;13.80;;;4.22;;
56269;SDS011;42176;43.240;27.880;2023-07-20T05:40:26;3.83;;;3.30;;
56269;SDS011;42176;43.240;27.880;2023-07-20T05:42:27;8.27;;;4.82;;
56269;SDS011;42176;43.240;27.880;2023-07-20T05:44:27;7.90;;;3.50;;
56269;SDS011;42176;43.240;27.880;2023-07-20T05:46:28;5.95;;;3.75;;
56269;SDS011;42176;43.240;27.880;2023-07-20T05:48:28;10.77;;;3.55;;
56269;SDS011;42176;43.240;27.880;2023-07-20T05:50:28;5.93;;;4.22;;
56269;SDS011;42176;43.240;27.880;2023-07-20T05:52:29;8.65;;;4.15;;
56269;SDS011;42176;43.240;27.880;2023-07-20T05:54:29;7.57;;;4.03;;
56269;SDS011;42176;43.240;27.880;2023-07-20T05:56:30;9.05;;;4.18;;
56269;SDS011;42176;43.240;27.880;2023-07-20T05:58:30;9.75;;;3.97;;
56269;SDS011;42176;43.240;27.880;2023-07-20T06:00:31;11.13;;;4.80;;
56269;SDS011;42176;43.240;27.880;2023-07-20T06:02:31;15.88;;;5.05;;
56269;SDS011;42176;43.240;27.880;2023-07-20T06:04:33;12.20;;;4.35;;
56269;SDS011;42176;43.240;27.880;2023-07-20T06:06:33;20.77;;;5.03;;
56269;SDS011;42176;43.240;27.880;2023-07-20T06:08:34;9.90;;;4.82;;
56269;SDS011;42176;43.240;27.880;2023-07-20T06:10:34;12.75;;;4.75;;
56269;SDS011;42176;43.240;27.880;2023-07-20T06:12:35;11.00;;;4.15;;
56269;SDS011;42176;43.240;27.880;2023-07-20T06:14:35;14.00;;;4.30;;
56269;SDS011;42176;43.240;27.880;2023-07-20T06:16:36;11.10;;;3.30;;
56269;SDS011;42176;43.240;27.880;2023-07-20T06:18:36;13.48;;;4.07;;
56269;SDS011;42176;43.240;27.880;2023-07-20T06:20:36;15.93;;;3.80;;
56269;SDS011;42176;43.240;27.880;2023-07-20T06:22:37;32.22;;;4.80;;
56269;SDS011;42176;43.240;27.880;2023-07-20T06:24:37;14.65;;;3.33;;
56269;SDS011;42176;43.240;27.880;2023-07-20T06:26:38;5.13;;;2.47;;
56269;SDS011;42176;43.240;27.880;2023-07-20T06:28:39;7.53;;;2.20;;
56269;SDS011;42176;43.240;27.880;2023-07-20T06:30:39;14.90;;;3.30;;
56269;SDS011;42176;43.240;27.880;2023-07-20T06:32:40;8.45;;;2.65;;
56269;SDS011;42176;43.240;27.880;2023-07-20T06:34:40;12.23;;;2.95;;
56269;SDS011;42176;43.240;27.880;2023-07-20T06:36:41;6.70;;;2.72;;
56269;SDS011;42176;43.240;27.880;2023-07-20T06:38:41;8.68;;;2.75;;
56269;SDS011;42176;43.240;27.880;2023-07-20T06:40:42;6.47;;;2.88;;
56269;SDS011;42176;43.240;27.880;2023-07-20T06:42:42;6.22;;;1.83;;
56269;SDS011;42176;43.240;27.880;2023-07-20T06:44:43;7.68;;;2.03;;
56269;SDS011;42176;43.240;27.880;2023-07-20T06:46:43;7.68;;;2.40;;
56269;SDS011;42176;43.240;27.880;2023-07-20T06:48:44;12.82;;;2.20;;
56269;SDS011;42176;43.240;27.880;2023-07-20T06:50:44;4.22;;;1.58;;
56269;SDS011;42176;43.240;27.880;2023-07-20T06:52:44;8.65;;;2.80;;
56269;SDS011;42176;43.240;27.880;2023-07-20T06:54:47;5.47;;;1.58;;
56269;SDS011;42176;43.240;27.880;2023-07-20T06:56:48;5.65;;;2.42;;
56269;SDS011;42176;43.240;27.880;2023-07-20T06:58:48;5.70;;;1.75;;
56269;SDS011;42176;43.240;27.880;2023-07-20T07:00:49;9.63;;;2.13;;
56269;SDS011;42176;43.240;27.880;2023-07-20T07:02:50;15.35;;;2.40;;
56269;SDS011;42176;43.240;27.880;2023-07-20T07:04:50;3.95;;;1.85;;
56269;SDS011;42176;43.240;27.880;2023-07-20T07:06:50;3.65;;;1.52;;
56269;SDS011;42176;43.240;27.880;2023-07-20T07:08:51;5.57;;;1.67;;
56269;SDS011;42176;43.240;27.880;2023-07-20T07:10:52;5.85;;;1.75;;
56269;SDS011;42176;43.240;27.880;2023-07-20T07:12:52;2.28;;;1.20;;
56269;SDS011;42176;43.240;27.880;2023-07-20T07:14:53;4.55;;;1.98;;
56269;SDS011;42176;43.240;27.880;2023-07-20T07:16:53;7.47;;;2.47;;
56269;SDS011;42176;43.240;27.880;2023-07-20T07:18:54;2.38;;;1.48;;
56269;SDS011;42176;43.240;27.880;2023-07-20T07:20:55;10.32;;;2.38;;
56269;SDS011;42176;43.240;27.880;2023-07-20T07:22:55;11.82;;;2.15;;
56269;SDS011;42176;43.240;27.880;2023-07-20T07:24:57;13.88;;;2.85;;
56269;SDS011;42176;43.240;27.880;2023-07-20T07:26:58;3.83;;;2.42;;
56269;SDS011;42176;43.240;27.880;2023-07-20T07:28:58;10.52;;;2.15;;
56269;SDS011;42176;43.240;27.880;2023-07-20T07:30:59;7.88;;;2.67;;
56269;SDS011;42176;43.240;27.880;2023-07-20T07:32:59;9.70;;;2.95;;
56269;SDS011;42176;43.240;27.880;2023-07-20T07:34:59;7.35;;;2.40;;
56269;SDS011;42176;43.240;27.880;2023-07-20T07:37:00;9.70;;;2.00;;
56269;SDS011;42176;43.240;27.880;2023-07-20T07:39:01;7.82;;;2.45;;
56269;SDS011;42176;43.240;27.880;2023-07-20T07:41:01;9.70;;;1.88;;
56269;SDS011;42176;43.240;27.880;2023-07-20T07:43:01;8.05;;;1.90;;
56269;SDS011;42176;43.240;27.880;2023-07-20T07:45:02;4.13;;;2.08;;
56269;SDS011;42176;43.240;27.880;2023-07-20T07:47:03;3.85;;;1.40;;
56269;SDS011;42176;43.240;27.880;2023-07-20T07:49:04;5.90;;;2.20;;
56269;SDS011;42176;43.240;27.880;2023-07-20T07:51:04;5.03;;;1.65;;
56269;SDS011;42176;43.240;27.880;2023-07-20T07:53:06;2.58;;;1.67;;
56269;SDS011;42176;43.240;27.880;2023-07-20T07:55:08;5.38;;;2.50;;
56269;SDS011;42176;43.240;27.880;2023-07-20T07:57:09;3.40;;;2.20;;
56269;SDS011;42176;43.240;27.880;2023-07-20T07:59:09;4.05;;;2.38;;
56269;SDS011;42176;43.240;27.880;2023-07-20T08:01:09;4.40;;;2.20;;
56269;SDS011;42176;43.240;27.880;2023-07-20T08:03:10;5.78;;;2.08;;
56269;SDS011;42176;43.240;27.880;2023-07-20T08:05:10;7.47;;;1.67;;
56269;SDS011;42176;43.240;27.880;2023-07-20T08:07:11;5.65;;;2.30;;
56269;SDS011;42176;43.240;27.880;2023-07-20T08:09:11;6.45;;;2.15;;
56269;SDS011;42176;43.240;27.880;2023-07-20T08:11:11;6.10;;;1.35;;
56269;SDS011;42176;43.240;27.880;2023-07-20T08:13:12;7.25;;;2.53;;
56269;SDS011;42176;43.240;27.880;2023-07-20T08:15:12;6.22;;;1.95;;
56269;SDS011;42176;43.240;27.880;2023-07-20T08:17:14;3.22;;;2.15;;
56269;SDS011;42176;43.240;27.880;2023-07-20T08:19:14;5.60;;;2.15;;
56269;SDS011;42176;43.240;27.880;2023-07-20T08:21:15;10.25;;;2.20;;
56269;SDS011;42176;43.240;27.880;2023-07-20T08:23:19;3.58;;;1.98;;
56269;SDS011;42176;43.240;27.880;2023-07-20T08:25:20;3.00;;;2.00;;
56269;SDS011;42176;43.240;27.880;2023-07-20T08:27:20;6.50;;;2.67;;
56269;SDS011;42176;43.240;27.880;2023-07-20T08:29:21;9.05;;;2.15;;
56269;SDS011;42176;43.240;27.880;2023-07-20T08:31:21;5.45;;;2.10;;
56269;SDS011;42176;43.240;27.880;2023-07-20T08:33:22;4.75;;;1.77;;
56269;SDS011;42176;43.240;27.880;2023-07-20T08:35:23;8.38;;;2.30;;
56269;SDS011;42176;43.240;27.880;2023-07-20T08:37:23;6.07;;;1.38;;
56269;SDS011;42176;43.240;27.880;2023-07-20T08:39:24;5.22;;;1.73;;
56269;SDS011;42176;43.240;27.880;2023-07-20T08:41:25;6.57;;;1.85;;
56269;SDS011;42176;43.240;27.880;2023-07-20T08:43:27;2.60;;;1.80;;
56269;SDS011;42176;43.240;27.880;2023-07-20T08:45:28;6.30;;;1.83;;
56269;SDS011;42176;43.240;27.880;2023-07-20T08:47:32;6.45;;;1.50;;
56269;SDS011;42176;43.240;27.880;2023-07-20T08:49:32;4.53;;;1.90;;
56269;SDS011;42176;43.240;27.880;2023-07-20T08:51:34;5.10;;;1.13;;
56269;SDS011;42176;43.240;27.880;2023-07-20T08:53:35;2.60;;;1.40;;
56269;SDS011;42176;43.240;27.880;2023-07-20T08:55:36;2.50;;;1.73;;
56269;SDS011;42176;43.240;27.880;2023-07-20T08:57:37;9.13;;;2.13;;
56269;SDS011;42176;43.240;27.880;2023-07-20T08:59:40;7.28;;;1.60;;
56269;SDS011;42176;43.240;27.880;2023-07-20T09:01:40;8.95;;;1.92;;
56269;SDS011;42176;43.240;27.880;2023-07-20T09:03:42;2.33;;;1.92;;
56269;SDS011;42176;43.240;27.880;2023-07-20T09:05:45;2.55;;;1.83;;
56269;SDS011;42176;43.240;27.880;2023-07-20T09:07:45;3.50;;;1.80;;
56269;SDS011;42176;43.240;27.880;2023-07-20T09:09:46;4.47;;;2.88;;
56269;SDS011;42176;43.240;27.880;2023-07-20T09:11:49;7.22;;;2.15;;
56269;SDS011;42176;43.240;27.880;2023-07-20T09:14:02;3.42;;;1.88;;
56269;SDS011;42176;43.240;27.880;2023-07-20T09:16:13;14.48;;;2.88;;
56269;SDS011;42176;43.240;27.880;2023-07-20T09:18:36;6.90;;;2.20;;
56269;SDS011;42176;43.240;27.880;2023-07-20T09:20:35;4.38;;;1.90;;
56269;SDS011;42176;43.240;27.880;2023-07-20T09:22:37;4.32;;;1.90;;
56269;SDS011;42176;43.240;27.880;2023-07-20T09:24:41;3.95;;;2.30;;
56269;SDS011;42176;43.240;27.880;2023-07-20T09:26:42;10.07;;;2.20;;
56269;SDS011;42176;43.240;27.880;2023-07-20T09:28:53;4.00;;;2.97;;
56269;SDS011;42176;43.240;27.880;2023-07-20T09:30:55;5.93;;;2.17;;
56269;SDS011;42176;43.240;27.880;2023-07-20T09:32:57;4.60;;;2.40;;
56269;SDS011;42176;43.240;27.880;2023-07-20T09:34:58;5.88;;;2.58;;
56269;SDS011;42176;43.240;27.880;2023-07-20T09:36:59;6.60;;;1.80;;
56269;SDS011;42176;43.240;27.880;2023-07-20T09:39:00;7.05;;;2.25;;
56269;SDS011;42176;43.240;27.880;2023-07-20T09:41:07;5.60;;;2.13;;
56269;SDS011;42176;43.240;27.880;2023-07-20T09:43:08;2.35;;;1.92;;
56269;SDS011;42176;43.240;27.880;2023-07-20T09:45:09;4.43;;;1.95;;
56269;SDS011;42176;43.240;27.880;2023-07-20T09:47:10;3.17;;;1.77;;
56269;SDS011;42176;43.240;27.880;2023-07-20T09:49:11;3.67;;;1.73;;
56269;SDS011;42176;43.240;27.880;2023-07-20T09:51:12;6.22;;;2.47;;
56269;SDS011;42176;43.240;27.880;2023-07-20T09:53:12;4.93;;;1.92;;
56269;SDS011;42176;43.240;27.880;2023-07-20T09:55:16;2.58;;;2.17;;
56269;SDS011;42176;43.240;27.880;2023-07-20T09:57:16;8.18;;;2.58;;
56269;SDS011;42176;43.240;27.880;2023-07-20T09:59:24;5.32;;;2.38;;
56269;SDS011;42176;43.240;27.880;2023-07-20T10:01:25;10.75;;;2.80;;
56269;SDS011;42176;43.240;27.880;2023-07-20T10:03:29;7.63;;;2.38;;
56269;SDS011;42176;43.240;27.880;2023-07-20T10:05:34;10.23;;;2.35;;
56269;SDS011;42176;43.240;27.880;2023-07-20T10:07:47;6.80;;;2.00;;
56269;SDS011;42176;43.240;27.880;2023-07-20T10:09:48;3.78;;;2.20;;
56269;SDS011;42176;43.240;27.880;2023-07-20T10:11:52;4.00;;;2.10;;
56269;SDS011;42176;43.240;27.880;2023-07-20T10:13:53;6.70;;;2.30;;
56269;SDS011;42176;43.240;27.880;2023-07-20T10:16:05;4.50;;;2.22;;
56269;SDS011;42176;43.240;27.880;2023-07-20T10:20:31;4.78;;;2.10;;
56269;SDS011;42176;43.240;27.880;2023-07-20T10:22:35;7.20;;;2.42;;
56269;SDS011;42176;43.240;27.880;2023-07-20T10:24:36;6.43;;;2.63;;
56269;SDS011;42176;43.240;27.880;2023-07-20T10:26:39;7.28;;;2.22;;
56269;SDS011;42176;43.240;27.880;2023-07-20T10:28:40;5.28;;;3.05;;
56269;SDS011;42176;43.240;27.880;2023-07-20T10:30:42;8.20;;;3.08;;
56269;SDS011;42176;43.240;27.880;2023-07-20T10:32:43;4.75;;;2.58;;
56269;SDS011;42176;43.240;27.880;2023-07-20T10:34:49;5.43;;;2.65;;
56269;SDS011;42176;43.240;27.880;2023-07-20T10:36:51;6.93;;;1.95;;
56269;SDS011;42176;43.240;27.880;2023-07-20T10:38:53;6.90;;;1.95;;
56269;SDS011;42176;43.240;27.880;2023-07-20T10:40:54;8.05;;;1.75;;
56269;SDS011;42176;43.240;27.880;2023-07-20T10:42:56;8.75;;;2.15;;
56269;SDS011;42176;43.240;27.880;2023-07-20T10:44:58;8.57;;;2.30;;
56269;SDS011;42176;43.240;27.880;2023-07-20T10:47:02;4.88;;;1.55;;
56269;SDS011;42176;43.240;27.880;2023-07-20T10:49:06;2.45;;;1.33;;
56269;SDS011;42176;43.240;27.880;2023-07-20T10:51:19;6.60;;;2.03;;
56269;SDS011;42176;43.240;27.880;2023-07-20T10:53:21;13.45;;;4.28;;
56269;SDS011;42176;43.240;27.880;2023-07-20T10:55:21;5.80;;;1.83;;
56269;SDS011;42176;43.240;27.880;2023-07-20T10:57:28;4.88;;;1.48;;
56269;SDS011;42176;43.240;27.880;2023-07-20T11:01:35;5.53;;;2.05;;
56269;SDS011;42176;43.240;27.880;2023-07-20T11:03:37;5.25;;;2.00;;
56269;SDS011;42176;43.240;27.880;2023-07-20T11:05:39;3.22;;;1.70;;
56269;SDS011;42176;43.240;27.880;2023-07-20T11:07:40;3.35;;;2.05;;
56269;SDS011;42176;43.240;27.880;2023-07-20T11:09:41;2.85;;;1.67;;
56269;SDS011;42176;43.240;27.880;2023-07-20T11:11:43;3.55;;;1.65;;
56269;SDS011;42176;43.240;27.880;2023-07-20T11:13:57;7.85;;;1.98;;
56269;SDS011;42176;43.240;27.880;2023-07-20T11:16:31;7.63;;;1.70;;
56269;SDS011;42176;43.240;27.880;2023-07-20T11:18:52;2.92;;;1.40;;
56269;SDS011;42176;43.240;27.880;2023-07-20T11:20:56;3.00;;;1.90;;
56269;SDS011;42176;43.240;27.880;2023-07-20T11:22:56;3.63;;;1.60;;
56269;SDS011;42176;43.240;27.880;2023-07-20T11:24:57;2.97;;;1.60;;
56269;SDS011;42176;43.240;27.880;2023-07-20T11:26:58;4.03;;;1.73;;
56269;SDS011;42176;43.240;27.880;2023-07-20T11:29:00;5.72;;;2.28;;
56269;SDS011;42176;43.240;27.880;2023-07-20T11:31:00;3.63;;;1.67;;
56269;SDS011;42176;43.240;27.880;2023-07-20T11:33:00;6.20;;;1.55;;
56269;SDS011;42176;43.240;27.880;2023-07-20T11:35:01;7.30;;;2.05;;
56269;SDS011;42176;43.240;27.880;2023-07-20T11:37:01;4.65;;;2.35;;
56269;SDS011;42176;43.240;27.880;2023-07-20T11:39:03;2.08;;;1.90;;
56269;SDS011;42176;43.240;27.880;2023-07-20T11:41:05;4.78;;;1.70;;
56269;SDS011;42176;43.240;27.880;2023-07-20T11:43:05;6.68;;;1.40;;
56269;SDS011;42176;43.240;27.880;2023-07-20T11:45:07;10.02;;;2.03;;
56269;SDS011;42176;43.240;27.880;2023-07-20T11:47:09;6.35;;;2.75;;
56269;SDS011;42176;43.240;27.880;2023-07-20T11:49:11;5.93;;;2.70;;
56269;SDS011;42176;43.240;27.880;2023-07-20T11:51:15;7.47;;;2.75;;
56269;SDS011;42176;43.240;27.880;2023-07-20T11:53:16;5.50;;;2.20;;
56269;SDS011;42176;43.240;27.880;2023-07-20T11:55:17;9.70;;;2.90;;
56269;SDS011;42176;43.240;27.880;2023-07-20T11:57:19;7.55;;;2.65;;
56269;SDS011;42176;43.240;27.880;2023-07-20T11:59:20;8.52;;;2.70;;
56269;SDS011;42176;43.240;27.880;2023-07-20T12:01:20;7.60;;;2.47;;
56269;SDS011;42176;43.240;27.880;2023-07-20T12:03:21;4.22;;;3.05;;
56269;SDS011;42176;43.240;27.880;2023-07-20T12:05:24;4.43;;;2.40;;
56269;SDS011;42176;43.240;27.880;2023-07-20T12:07:26;5.20;;;2.58;;
56269;SDS011;42176;43.240;27.880;2023-07-20T12:09:28;6.47;;;2.20;;
56269;SDS011;42176;43.240;27.880;2023-07-20T12:11:35;8.40;;;2.20;;
56269;SDS011;42176;43.240;27.880;2023-07-20T12:13:42;8.45;;;2.63;;
56269;SDS011;42176;43.240;27.880;2023-07-20T12:15:44;6.70;;;2.40;;
56269;SDS011;42176;43.240;27.880;2023-07-20T12:17:45;7.70;;;2.42;;
56269;SDS011;42176;43.240;27.880;2023-07-20T12:19:45;7.50;;;2.50;;
56269;SDS011;42176;43.240;27.880;2023-07-20T12:23:46;10.70;;;3.87;;
56269;SDS011;42176;43.240;27.880;2023-07-20T12:25:47;3.35;;;2.90;;
56269;SDS011;42176;43.240;27.880;2023-07-20T12:27:48;7.07;;;3.78;;
56269;SDS011;42176;43.240;27.880;2023-07-20T12:29:48;7.30;;;3.50;;
56269;SDS011;42176;43.240;27.880;2023-07-20T12:31:49;7.53;;;3.42;;
56269;SDS011;42176;43.240;27.880;2023-07-20T12:33:49;6.38;;;2.92;;
56269;SDS011;42176;43.240;27.880;2023-07-20T12:35:51;9.48;;;3.22;;
56269;SDS011;42176;43.240;27.880;2023-07-20T12:37:55;6.10;;;3.83;;
56269;SDS011;42176;43.240;27.880;2023-07-20T12:39:56;15.55;;;3.58;;
56269;SDS011;42176;43.240;27.880;2023-07-20T12:41:56;10.65;;;3.45;;
56269;SDS011;42176;43.240;27.880;2023-07-20T12:45:58;5.35;;;3.10;;
56269;SDS011;42176;43.240;27.880;2023-07-20T12:47:59;4.63;;;3.03;;
56269;SDS011;42176;43.240;27.880;2023-07-20T12:50:00;9.65;;;3.00;;